Time;durP1;ratioP1;P1;durP2;ratioP2;P2;SDS_P1;SDS_P2;PMS_P1;PMS_P2;Temp;Humidity;BMP_temperature;BMP_pressure;BME280_temperature;BME280_humidity;BME280_pressure;Samples;Min_cycle;Max_cycle;Signal;HPM_P1;HPM_P2
2022/09/13 00:00:40;;;;;;;8.50;6.40;;;;;;;17.03;64.02;99673.69;5068839;28;20028;-28
2022/09/13 00:03:06;;;;;;;9.23;7.28;;;;;;;17.08;64.61;99673.69;5069119;28;20034;-30
2022/09/13 00:05:32;;;;;;;8.68;7.10;;;;;;;17.02;64.42;99658.59;5050884;28;20036;-31
2022/09/13 00:07:58;;;;;;;9.65;7.65;;;;;;;16.95;65.02;99672.34;5068870;28;20028;-31
2022/09/13 00:10:25;;;;;;;9.32;7.43;;;;;;;16.93;65.11;99674.50;5068585;28;20039;-27
2022/09/13 00:12:50;;;;;;;7.60;6.40;;;;;;;16.84;64.88;99676.94;5050770;28;20527;-30
2022/09/13 00:15:16;;;;;;;7.60;6.75;;;;;;;16.62;65.96;99669.09;5068299;28;20064;-28
2022/09/13 00:17:41;;;;;;;7.93;6.20;;;;;;;16.67;65.53;99666.41;5068287;28;20032;-26
2022/09/13 00:20:08;;;;;;;7.45;6.43;;;;;;;16.75;65.45;99673.13;5068685;28;20065;-33
2022/09/13 00:22:34;;;;;;;7.53;6.72;;;;;;;16.57;65.55;99654.81;5068420;28;20025;-28
2022/09/13 00:24:59;;;;;;;8.82;6.30;;;;;;;16.67;65.78;99665.59;5050582;28;20093;-31
2022/09/13 00:27:25;;;;;;;8.48;7.00;;;;;;;16.61;65.55;99647.81;5068200;28;20032;-28
2022/09/13 00:29:51;;;;;;;7.35;6.15;;;;;;;16.69;65.42;99660.72;5068401;28;20068;-28
2022/09/13 00:32:16;;;;;;;9.80;6.50;;;;;;;16.68;65.22;99661.81;5068439;28;20028;-27
2022/09/13 00:34:42;;;;;;;9.13;7.03;;;;;;;16.63;65.84;99665.34;5067818;28;20055;-29
2022/09/13 00:37:07;;;;;;;7.65;6.43;;;;;;;16.72;65.31;99662.91;5068194;28;20035;-31
2022/09/13 00:39:33;;;;;;;7.47;6.45;;;;;;;16.68;65.00;99662.63;5050234;28;20040;-32
2022/09/13 00:41:59;;;;;;;7.28;6.35;;;;;;;16.64;65.17;99666.13;5067939;28;20025;-27
2022/09/13 00:44:46;;;;;;;9.70;6.57;;;;;;;16.72;64.86;99665.59;5067953;28;20033;-28
2022/09/13 00:47:17;;;;;;;8.73;6.80;;;;;;;16.51;65.44;99651.34;5067923;28;20056;-30
2022/09/13 00:49:46;;;;;;;8.13;5.60;;;;;;;16.57;65.03;99655.63;5050011;28;20045;-31
2022/09/13 00:52:17;;;;;;;7.20;6.20;;;;;;;16.50;65.24;99652.38;5049600;28;20024;-31
2022/09/13 00:54:51;;;;;;;8.20;6.45;;;;;;;16.62;65.24;99658.31;5067880;28;20032;-29
2022/09/13 00:57:21;;;;;;;7.22;6.47;;;;;;;16.63;64.85;99649.19;5067622;28;20079;-33
2022/09/13 01:00:06;;;;;;;7.35;6.47;;;;;;;16.62;64.80;99646.75;5049605;28;20455;-28
2022/09/13 01:02:32;;;;;;;8.35;6.65;;;;;;;16.63;64.47;99648.34;5067573;28;20543;-28
2022/09/13 01:04:57;;;;;;;7.82;6.70;;;;;;;16.47;65.83;99655.63;5049301;28;20697;-28
2022/09/13 01:07:23;;;;;;;9.05;6.97;;;;;;;16.41;66.58;99657.50;5067762;28;20032;-31
2022/09/13 01:09:51;;;;;;;9.50;7.20;;;;;;;16.50;66.70;99668.53;5068028;28;20085;-27
2022/09/13 01:12:39;;;;;;;8.15;6.82;;;;;;;16.65;65.91;99665.03;5049611;28;20036;-28
2022/09/13 01:15:05;;;;;;;7.28;6.53;;;;;;;16.65;66.05;99655.09;5049384;28;20097;-28
2022/09/13 01:17:32;;;;;;;8.38;6.65;;;;;;;16.51;66.12;99654.03;5049487;28;20032;-30
2022/09/13 01:19:59;;;;;;;9.10;6.60;;;;;;;16.56;66.29;99667.47;5066308;28;20118;-27
2022/09/13 01:22:46;;;;;;;10.60;7.72;;;;;;;16.50;66.19;99651.59;5067729;28;20116;-28
2022/09/13 01:25:48;;;;;;;7.32;6.30;;;;;;;16.57;65.87;99654.81;5067586;28;20543;-28
2022/09/13 01:28:31;;;;;;;7.72;6.65;;;;;;;16.32;66.48;99658.28;5067196;28;20107;-29
2022/09/13 01:31:26;;;;;;;9.27;6.80;;;;;;;16.29;66.69;99653.44;5067393;28;20086;-34
2022/09/13 01:33:51;;;;;;;9.57;6.63;;;;;;;16.41;65.68;99645.94;5067381;28;20048;-29
2022/09/13 01:36:38;;;;;;;6.93;6.13;;;;;;;16.45;65.55;99647.81;5067382;28;20082;-28
2022/09/13 01:39:06;;;;;;;8.73;5.97;;;;;;;16.29;65.64;99626.53;5048894;28;20039;-30
2022/09/13 01:42:10;;;;;;;7.47;5.65;;;;;;;16.28;65.96;99641.84;5048958;28;20064;-32
2022/09/13 01:45:02;;;;;;;6.97;5.70;;;;;;;16.16;65.24;99617.09;5066626;28;20036;-28
2022/09/13 01:47:43;;;;;;;7.28;5.65;;;;;;;16.33;65.17;99639.19;5067269;28;20028;-27
2022/09/13 01:50:14;;;;;;;10.23;5.70;;;;;;;16.41;64.81;99646.75;5067217;28;20127;-34
2022/09/13 01:52:56;;;;;;;7.70;5.93;;;;;;;16.37;65.36;99656.41;5048633;28;20067;-28
2022/09/13 01:55:40;;;;;;;7.32;6.07;;;;;;;16.42;65.72;99645.66;5049070;28;20063;-27
2022/09/13 01:58:18;;;;;;;7.38;5.72;;;;;;;16.49;64.71;99648.09;5067020;28;20020;-29
2022/09/13 02:01:03;;;;;;;8.80;5.82;;;;;;;16.42;65.16;99645.66;5048700;28;20127;-27
2022/09/13 02:03:54;;;;;;;7.30;5.80;;;;;;;16.51;65.56;99661.25;5065731;28;20090;-28
2022/09/13 02:06:27;;;;;;;7.10;6.00;;;;;;;16.44;64.93;99646.19;5066946;28;20036;-29
2022/09/13 02:09:04;;;;;;;6.90;5.60;;;;;;;16.40;65.99;99653.19;5048856;28;20021;-28
2022/09/13 02:11:31;;;;;;;6.85;6.13;;;;;;;16.15;67.53;99653.16;5048627;28;20028;-30
2022/09/13 02:14:06;;;;;;;10.03;7.20;;;;;;;16.23;67.08;99634.59;5048866;28;20025;-29
2022/09/13 02:16:42;;;;;;;8.75;6.30;;;;;;;15.94;68.37;99630.78;5066516;28;20021;-27
2022/09/13 02:19:14;;;;;;;9.63;6.95;;;;;;;16.01;68.89;99653.63;5048591;28;20055;-28
2022/09/13 02:21:43;;;;;;;7.68;6.18;;;;;;;16.06;68.40;99645.59;5048463;28;20086;-31
2022/09/13 02:24:21;;;;;;;8.80;6.55;;;;;;;15.94;69.11;99653.09;5048201;28;20029;-32
2022/09/13 02:26:51;;;;;;;9.75;6.03;;;;;;;15.92;69.20;99652.56;5048482;28;20120;-28
2022/09/13 02:29:19;;;;;;;8.23;6.18;;;;;;;15.79;68.95;99635.03;5066781;28;20060;-27
2022/09/13 02:31:59;;;;;;;6.93;6.20;;;;;;;15.85;69.91;99646.59;5048353;28;20111;-32
2022/09/13 02:34:30;;;;;;;7.93;6.13;;;;;;;15.94;68.69;99642.34;5048220;28;20443;-29
2022/09/13 02:36:57;;;;;;;7.28;5.07;;;;;;;15.98;67.86;99638.06;5048415;28;20059;-28
2022/09/13 02:39:26;;;;;;;7.22;5.70;;;;;;;15.88;68.96;99627.25;5067727;28;20135;-28
2022/09/13 02:42:11;;;;;;;6.95;5.60;;;;;;;15.92;68.83;99647.19;5070343;28;20027;-30
2022/09/13 02:44:44;;;;;;;8.77;5.65;;;;;;;16.03;68.52;99645.31;5070173;28;20097;-29
2022/09/13 02:47:28;;;;;;;9.43;5.80;;;;;;;16.01;68.64;99647.47;5070356;28;20028;-31
2022/09/13 02:50:04;;;;;;;8.90;6.40;;;;;;;15.94;68.56;99642.34;5070475;28;20040;-28
2022/09/13 02:52:41;;;;;;;8.48;6.13;;;;;;;15.88;69.08;99643.41;5068681;28;20519;-31
2022/09/13 02:55:15;;;;;;;8.50;6.28;;;;;;;15.96;69.25;99640.19;5068356;28;20037;-28
2022/09/13 02:57:59;;;;;;;8.15;5.60;;;;;;;15.75;69.87;99643.88;5052101;28;20156;-27
2022/09/13 03:00:24;;;;;;;8.10;6.30;;;;;;;15.70;69.93;99643.84;5068230;28;20047;-28
2022/09/13 03:02:52;;;;;;;9.75;6.97;;;;;;;15.48;70.99;99612.56;5070101;28;20028;-28
2022/09/13 03:05:17;;;;;;;9.75;7.10;;;;;;;15.61;70.42;99638.13;5051690;28;20042;-29
2022/09/13 03:07:43;;;;;;;8.18;5.95;;;;;;;15.36;70.83;99626.19;5069699;28;20033;-28
2022/09/13 03:10:12;;;;;;;7.13;5.75;;;;;;;15.42;70.94;99637.78;5069916;28;20040;-27
2022/09/13 03:13:22;;;;;;;8.65;5.43;;;;;;;15.43;70.99;99650.97;5069620;28;20462;-29
2022/09/13 03:16:18;;;;;;;11.88;7.00;;;;;;;15.39;71.46;99652.56;5038483;28;20051;-30
2022/09/13 03:19:15;;;;;;;13.73;8.40;;;;;;;15.39;71.65;99654.44;5069705;28;20028;-30
2022/09/13 03:21:59;;;;;;;14.50;9.13;;;;;;;15.43;71.68;99653.66;5051714;28;20028;-29
2022/09/13 03:24:36;;;;;;;22.83;12.18;;;;;;;15.34;71.18;99657.09;5069319;28;20067;-27
2022/09/13 03:27:18;;;;;;;38.10;13.98;;;;;;;15.43;71.39;99663.59;5069714;28;20060;-27
2022/09/13 03:30:09;;;;;;;29.27;11.73;;;;;;;15.43;71.33;99652.84;5051372;28;20029;-29
2022/09/13 03:32:50;;;;;;;17.38;8.68;;;;;;;15.33;71.91;99658.97;5048859;28;20083;-31
2022/09/13 03:35:53;;;;;;;9.75;6.13;;;;;;;15.42;71.86;99668.16;5048012;28;20068;-29
2022/09/13 03:38:28;;;;;;;7.32;5.70;;;;;;;15.36;71.93;99663.03;5047937;28;20497;-28
2022/09/13 03:41:07;;;;;;;9.27;6.50;;;;;;;15.30;72.38;99674.81;5047801;28;20568;-28
2022/09/13 03:43:42;;;;;;;10.63;6.47;;;;;;;15.19;72.78;99674.75;5049698;28;20488;-27
2022/09/13 03:46:14;;;;;;;7.95;6.40;;;;;;;14.97;73.84;99666.00;5047933;28;20706;-29
2022/09/13 03:48:41;;;;;;;10.05;7.03;;;;;;;14.91;73.99;99672.38;5047631;28;20037;-27
2022/09/13 03:51:08;;;;;;;8.43;6.45;;;;;;;14.92;74.17;99672.13;5064162;28;20037;-32
2022/09/13 03:53:38;;;;;;;9.50;6.43;;;;;;;14.78;74.36;99663.72;5064262;28;20033;-29
2022/09/13 03:56:15;;;;;;;8.00;6.57;;;;;;;14.50;76.25;99678.19;5047608;28;20635;-29
2022/09/13 03:58:40;;;;;;;9.13;7.05;;;;;;;14.68;75.06;99685.09;5048957;28;20028;-27
2022/09/13 04:01:07;;;;;;;12.20;7.45;;;;;;;14.44;75.62;99674.66;5048755;28;20048;-29
2022/09/13 04:03:32;;;;;;;9.30;7.70;;;;;;;14.31;76.40;99674.25;5048725;28;20036;-30
2022/09/13 04:05:57;;;;;;;9.43;7.25;;;;;;;14.30;75.95;99662.69;5048700;28;20033;-32
2022/09/13 04:08:23;;;;;;;11.38;7.50;;;;;;;14.51;75.16;99673.66;5048583;28;20037;-27
2022/09/13 04:10:50;;;;;;;9.48;6.80;;;;;;;14.43;75.44;99662.31;5048850;28;20033;-27
2022/09/13 04:13:16;;;;;;;8.48;7.43;;;;;;;14.31;76.55;99679.63;5047611;28;20036;-30
2022/09/13 04:15:41;;;;;;;10.15;7.43;;;;;;;14.21;76.74;99680.31;5048720;28;20412;-28
2022/09/13 04:18:07;;;;;;;10.40;7.78;;;;;;;14.40;75.72;99664.69;5048740;28;20048;-27
2022/09/13 04:20:34;;;;;;;8.73;7.43;;;;;;;14.46;75.82;99683.28;5048377;28;20085;-31
2022/09/13 04:23:00;;;;;;;9.30;7.15;;;;;;;14.19;77.03;99679.75;5048579;28;20020;-29
2022/09/13 04:25:26;;;;;;;9.82;6.97;;;;;;;14.26;76.47;99689.22;5048508;28;20036;-27
2022/09/13 04:27:57;;;;;;;9.07;7.43;;;;;;;14.27;76.12;99668.59;5048235;28;20029;-29
2022/09/13 04:30:22;;;;;;;7.90;6.88;;;;;;;14.31;76.64;99679.63;5046851;28;20484;-30
2022/09/13 04:32:48;;;;;;;12.23;7.80;;;;;;;14.39;76.30;99697.94;5048397;28;20036;-28
2022/09/13 04:35:18;;;;;;;10.75;7.38;;;;;;;14.25;76.45;99670.72;5063369;28;20052;-27
2022/09/13 04:37:44;;;;;;;8.82;7.13;;;;;;;14.41;76.58;99706.56;5068403;28;20036;-29
2022/09/13 04:40:10;;;;;;;10.10;8.15;;;;;;;14.57;75.95;99700.31;5068561;28;20579;-29
2022/09/13 04:42:35;;;;;;;9.07;6.95;;;;;;;14.45;75.91;99684.31;5067746;28;20027;-27
2022/09/13 04:45:01;;;;;;;9.02;7.22;;;;;;;14.64;75.72;99705.44;5068097;28;20514;-28
2022/09/13 04:47:27;;;;;;;11.15;8.25;;;;;;;14.71;75.93;99708.75;5067893;28;20025;-28
2022/09/13 04:49:53;;;;;;;10.43;7.20;;;;;;;14.63;75.05;99687.75;5067996;28;20111;-28
2022/09/13 04:52:18;;;;;;;9.50;7.32;;;;;;;14.68;75.13;99700.41;5066474;28;20115;-38
2022/09/13 04:54:44;;;;;;;9.73;7.30;;;;;;;14.85;74.34;99701.91;5067678;28;20313;-27
2022/09/13 04:57:10;;;;;;;10.02;7.38;;;;;;;14.99;74.60;99720.25;5067987;28;20496;-29
2022/09/13 04:59:35;;;;;;;12.63;7.38;;;;;;;15.05;74.53;99709.28;5066310;28;20043;-28
2022/09/13 05:02:01;;;;;;;10.05;7.45;;;;;;;15.37;72.99;99719.19;5065797;28;20416;-27
2022/09/13 05:04:26;;;;;;;8.55;6.70;;;;;;;15.45;72.77;99728.66;5067254;28;20074;-33
2022/09/13 05:06:52;;;;;;;8.18;6.43;;;;;;;15.55;71.87;99709.91;5067671;28;20082;-28
2022/09/13 05:09:17;;;;;;;8.45;6.90;;;;;;;15.73;71.50;99723.97;5067802;28;20029;-30
2022/09/13 05:11:43;;;;;;;8.45;6.63;;;;;;;15.85;71.03;99725.41;5067618;28;20028;-28
2022/09/13 05:14:09;;;;;;;9.15;6.43;;;;;;;16.13;70.08;99741.38;5067691;28;20032;-28
2022/09/13 05:16:35;;;;;;;7.07;5.93;;;;;;;16.14;70.09;99737.59;5067485;28;20031;-33
2022/09/13 05:19:01;;;;;;;11.60;6.78;;;;;;;16.21;71.11;99738.97;5067482;28;20025;-30
2022/09/13 05:21:27;;;;;;;8.82;6.50;;;;;;;16.97;68.44;99717.88;5049390;28;20024;-28
2022/09/13 05:23:54;;;;;;;6.80;5.70;;;;;;;17.41;68.86;99717.31;5066249;28;20067;-31
2022/09/13 05:26:22;;;;;;;8.77;6.07;;;;;;;17.25;66.54;99736.19;5049026;28;20017;-32
2022/09/13 05:28:47;;;;;;;8.23;6.57;;;;;;;17.20;66.70;99738.88;5049323;28;20031;-27
2022/09/13 05:31:23;;;;;;;8.73;6.10;;;;;;;17.00;67.28;99723.53;5067256;28;20032;-30
2022/09/13 05:33:53;;;;;;;8.20;6.25;;;;;;;16.97;67.57;99737.53;5049075;28;20076;-28
2022/09/13 05:36:19;;;;;;;9.23;6.95;;;;;;;17.07;67.50;99739.41;5067403;28;20032;-29
2022/09/13 05:38:44;;;;;;;10.15;7.35;;;;;;;17.17;67.20;99747.50;5067180;28;20040;-29
2022/09/13 05:41:10;;;;;;;9.48;6.57;;;;;;;17.21;67.40;99747.78;5067350;28;20027;-28
2022/09/13 05:43:35;;;;;;;7.70;6.03;;;;;;;17.22;66.58;99735.91;5067369;28;20028;-27
2022/09/13 05:46:02;;;;;;;10.25;6.35;;;;;;;17.32;67.10;99743.19;5067126;28;20029;-29
2022/09/13 05:48:29;;;;;;;8.65;6.28;;;;;;;17.39;66.90;99741.03;5048851;28;20420;-28
2022/09/13 05:50:54;;;;;;;10.98;7.18;;;;;;;17.45;68.15;99729.16;5049072;28;20060;-28
2022/09/13 05:53:20;;;;;;;8.85;6.65;;;;;;;17.45;68.41;99723.75;5066883;28;20515;-30
2022/09/13 05:55:45;;;;;;;12.00;7.97;;;;;;;17.93;66.38;99728.78;5065884;28;20025;-30
2022/09/13 05:58:11;;;;;;;6.50;5.20;;;;;;;18.21;65.38;99746.19;5067058;28;20036;-28
2022/09/13 06:00:36;;;;;;;7.07;5.20;;;;;;;18.27;65.34;99745.09;5066254;28;20032;-28
2022/09/13 06:03:02;;;;;;;7.68;5.57;;;;;;;18.24;65.46;99740.22;5066930;28;20040;-29
2022/09/13 06:05:27;;;;;;;9.25;5.50;;;;;;;18.36;64.64;99727.22;5066728;28;20037;-28
2022/09/13 06:07:53;;;;;;;8.70;6.20;;;;;;;18.50;64.56;99727.41;5066670;28;20468;-30
2022/09/13 06:10:19;;;;;;;7.63;4.88;;;;;;;18.64;63.05;99738.41;5066895;28;20028;-29
2022/09/13 06:12:45;;;;;;;8.77;6.00;;;;;;;18.59;63.98;99714.09;5066840;28;20081;-28
2022/09/13 06:15:10;;;;;;;6.95;4.90;;;;;;;18.86;62.55;99736.09;5068841;28;20036;-28
2022/09/13 06:17:36;;;;;;;9.80;5.72;;;;;;;18.82;63.15;99716.13;5070781;28;20408;-30
2022/09/13 06:20:02;;;;;;;8.20;4.93;;;;;;;19.01;62.11;99737.88;5052706;28;20115;-27
2022/09/13 06:22:32;;;;;;;7.20;4.90;;;;;;;19.27;60.62;99732.25;5070245;28;20033;-28
2022/09/13 06:24:58;;;;;;;9.00;5.35;;;;;;;19.41;61.32;99729.66;5070575;28;20036;-30
2022/09/13 06:27:23;;;;;;;6.40;4.65;;;;;;;19.22;58.94;99727.69;5052183;28;20468;-27
2022/09/13 06:29:49;;;;;;;7.25;4.82;;;;;;;19.26;59.08;99728.72;5070162;28;20165;-28
2022/09/13 06:32:14;;;;;;;7.13;4.65;;;;;;;19.48;58.85;99740.97;5070290;28;20214;-30
2022/09/13 06:34:40;;;;;;;7.38;4.45;;;;;;;19.59;57.46;99736.25;5051046;28;20041;-28
2022/09/13 06:37:05;;;;;;;6.90;4.18;;;;;;;19.76;57.15;99752.88;5070170;28;20036;-28
2022/09/13 06:39:31;;;;;;;8.50;4.55;;;;;;;19.73;57.28;99731.00;5051936;28;20432;-28
2022/09/13 06:45:18;;;;;;;7.07;4.40;;;;;;;19.93;57.50;99754.31;5070286;28;20051;-35
2022/09/13 06:47:44;;;;;;;7.85;4.70;;;;;;;20.11;57.17;99756.25;5069968;28;20056;-28
2022/09/13 06:50:09;;;;;;;7.68;4.53;;;;;;;20.17;56.84;99743.47;5070108;28;20159;-31
2022/09/13 06:52:34;;;;;;;6.70;4.30;;;;;;;20.33;54.95;99744.88;5069523;28;20040;-29
2022/09/13 06:55:00;;;;;;;7.50;4.97;;;;;;;20.53;55.27;99760.03;5070092;28;20447;-32
2022/09/13 06:57:29;;;;;;;9.25;4.40;;;;;;;20.38;53.96;99758.34;5069829;28;20028;-31
2022/09/13 06:59:54;;;;;;;5.88;3.90;;;;;;;20.21;54.72;99769.66;5051721;28;20035;-30
2022/09/13 07:02:20;;;;;;;7.88;4.32;;;;;;;20.30;55.17;99761.69;5069482;28;20028;-28
2022/09/13 07:04:45;;;;;;;4.90;3.40;;;;;;;20.55;51.73;99767.88;5069669;28;20043;-31
2022/09/13 07:07:11;;;;;;;6.30;4.18;;;;;;;20.41;53.41;99751.53;5069480;28;20024;-30
2022/09/13 07:09:36;;;;;;;6.45;4.07;;;;;;;20.53;51.20;99757.31;5051672;28;20039;-31
2022/09/13 07:12:04;;;;;;;5.63;3.97;;;;;;;20.57;52.82;99769.19;5069702;28;20484;-30
2022/09/13 07:14:30;;;;;;;;;;;;;;;20.59;52.55;99774.34;5051809;28;20032;-31
2022/09/13 07:16:55;;;;;;;7.70;3.72;;;;;;;20.50;51.58;99754.41;5069821;28;20426;-29
2022/09/13 07:19:25;;;;;;;9.25;4.47;;;;;;;20.69;53.51;99768.78;5051968;28;20029;-30
2022/09/13 07:21:50;;;;;;;5.32;3.60;;;;;;;20.91;51.08;99770.09;5070269;28;20168;-28
2022/09/13 07:24:17;;;;;;;8.32;4.38;;;;;;;20.91;52.06;99775.50;5052231;28;20527;-33
2022/09/13 07:26:43;;;;;;;6.10;4.05;;;;;;;21.00;50.00;99762.88;5051573;28;20094;-28
2022/09/13 07:29:13;;;;;;;7.13;3.67;;;;;;;21.11;51.34;99752.69;5070656;28;20025;-28
2022/09/13 07:31:41;;;;;;;5.28;3.15;;;;;;;21.31;49.43;99774.06;5052192;28;20040;-31
2022/09/13 07:34:12;;;;;;;5.20;3.45;;;;;;;21.40;49.84;99774.16;5051221;28;20617;-32
2022/09/13 07:36:37;;;;;;;5.22;3.78;;;;;;;21.58;49.53;99773.31;5051680;28;20090;-32
2022/09/13 07:39:04;;;;;;;5.05;3.40;;;;;;;21.63;49.94;99781.34;5070139;28;20032;-32
2022/09/13 07:41:31;;;;;;;6.20;3.80;;;;;;;21.46;49.97;99764.88;5051893;28;20036;-28
2022/09/13 07:43:59;;;;;;;4.93;3.80;;;;;;;21.47;51.92;99774.59;5052057;28;20033;-32
2022/09/13 07:46:27;;;;;;;7.82;3.72;;;;;;;21.62;51.46;99766.19;5051615;28;20029;-28
2022/09/13 07:48:53;;;;;;;;;;;;;;;21.87;49.69;99769.53;5052115;28;20028;-28
2022/09/13 07:51:21;;;;;;;4.78;3.50;;;;;;;22.06;49.53;99767.50;5069946;28;19912;-28
2022/09/13 07:53:50;;;;;;;6.75;3.78;;;;;;;22.14;50.25;99765.19;5070237;28;20024;-29
2022/09/13 07:56:22;;;;;;;5.80;3.40;;;;;;;22.15;49.27;99780.38;5051728;28;20036;-27
2022/09/13 07:58:49;;;;;;;5.95;3.60;;;;;;;22.20;49.45;99772.13;5051813;28;20044;-28
2022/09/13 08:01:25;;;;;;;4.28;3.13;;;;;;;22.28;47.55;99774.16;5069765;28;20039;-30
2022/09/13 08:04:02;;;;;;;5.72;3.17;;;;;;;22.51;48.40;99772.28;5051757;28;20040;-27
2022/09/13 08:06:29;;;;;;;5.47;3.10;;;;;;;22.63;46.49;99774.50;5051192;28;20090;-31
2022/09/13 08:08:55;;;;;;;4.72;2.70;;;;;;;22.70;45.35;99774.88;5051356;28;20492;-28
2022/09/13 08:11:33;;;;;;;5.70;3.03;;;;;;;22.59;46.63;99768.06;5051328;28;20597;-27
2022/09/13 08:13:59;;;;;;;5.05;2.90;;;;;;;22.62;45.79;99762.81;5051166;28;20109;-28
2022/09/13 08:16:26;;;;;;;5.43;3.10;;;;;;;22.60;47.02;99756.09;5051244;28;20029;-28
2022/09/13 08:18:57;;;;;;;6.78;3.10;;;;;;;22.87;44.88;99774.22;5069920;28;20047;-29
2022/09/13 08:21:24;;;;;;;5.97;3.20;;;;;;;23.00;44.96;99772.53;5051292;28;20432;-27
2022/09/13 08:23:54;;;;;;;3.33;2.53;;;;;;;23.05;44.44;99772.47;5051124;28;20029;-29
2022/09/13 08:26:20;;;;;;;5.18;2.70;;;;;;;22.83;42.08;99757.72;5051009;28;20069;-28
2022/09/13 08:28:45;;;;;;;4.35;2.75;;;;;;;23.08;42.77;99768.31;5069138;28;20029;-32
2022/09/13 08:31:16;;;;;;;5.13;2.60;;;;;;;23.12;44.81;99756.50;5069303;28;20108;-29
2022/09/13 08:33:43;;;;;;;4.38;2.80;;;;;;;23.38;43.39;99761.31;5068952;28;20736;-28
2022/09/13 08:36:09;;;;;;;3.92;2.35;;;;;;;23.72;42.60;99751.69;5068715;28;20047;-34
2022/09/13 08:38:34;;;;;;;5.88;2.53;;;;;;;23.66;41.70;99762.72;5067926;28;20402;-28
2022/09/13 08:41:25;;;;;;;3.75;2.47;;;;;;;23.44;41.26;99760.06;5068527;28;20519;-29
2022/09/13 08:43:56;;;;;;;3.10;2.28;;;;;;;23.49;41.86;99759.91;5068843;28;20028;-33
2022/09/13 08:46:26;;;;;;;6.03;2.40;;;;;;;23.99;41.94;99765.13;5068902;28;20543;-32
2022/09/13 08:48:57;;;;;;;4.18;2.15;;;;;;;24.32;40.08;99766.63;5050621;28;20033;-31
2022/09/13 08:51:30;;;;;;;3.55;2.20;;;;;;;24.01;38.13;99757.44;5050442;28;20029;-29
2022/09/13 08:53:56;;;;;;;5.60;2.60;;;;;;;24.05;40.18;99769.28;5050632;28;20027;-29
2022/09/13 08:56:45;;;;;;;4.68;2.35;;;;;;;24.11;39.05;99767.25;5068398;28;20034;-30
2022/09/13 08:59:38;;;;;;;4.25;2.47;;;;;;;23.98;39.76;99762.69;5068152;28;20820;-28
2022/09/13 09:02:45;;;;;;;3.92;2.20;;;;;;;24.38;38.59;99757.97;5050534;28;20036;-28
2022/09/13 09:05:18;;;;;;;3.85;1.90;;;;;;;24.93;39.09;99739.38;5050403;28;20055;-29
2022/09/13 09:07:52;;;;;;;3.08;2.17;;;;;;;25.28;39.09;99742.91;5050397;28;20021;-31
2022/09/13 09:10:22;;;;;;;3.30;2.10;;;;;;;25.00;36.71;99759.59;5050062;28;20029;-28
2022/09/13 09:12:50;;;;;;;4.28;2.30;;;;;;;25.12;37.03;99756.22;5068537;28;20052;-28
2022/09/13 09:15:21;;;;;;;4.13;2.10;;;;;;;25.14;36.60;99762.16;5068221;28;20566;-29
2022/09/13 09:17:50;;;;;;;2.75;2.10;;;;;;;25.39;37.07;99751.53;5068055;28;20115;-29
2022/09/13 09:20:23;;;;;;;3.33;2.20;;;;;;;25.29;35.35;99743.69;5068084;28;20027;-28
2022/09/13 09:22:50;;;;;;;4.65;2.20;;;;;;;24.96;34.36;99746.94;5068181;28;20020;-39
2022/09/13 09:25:17;;;;;;;3.85;2.40;;;;;;;24.82;36.82;99742.44;5068306;28;20032;-29
2022/09/13 09:27:42;;;;;;;4.03;1.98;;;;;;;24.97;35.40;99732.19;5068261;28;20032;-30
2022/09/13 09:30:13;;;;;;;4.75;2.15;;;;;;;25.43;36.17;99738.84;5049845;28;20480;-28
2022/09/13 09:32:51;;;;;;;4.43;2.53;;;;;;;25.74;36.12;99748.69;5067915;28;20847;-28
2022/09/13 09:35:23;;;;;;;2.65;2.00;;;;;;;25.41;35.35;99730.19;5049791;28;20056;-30
2022/09/13 09:38:22;;;;;;;5.18;2.20;;;;;;;25.92;34.93;99725.63;5049879;28;20033;-28
2022/09/13 09:40:48;;;;;;;4.28;2.03;;;;;;;26.43;35.74;99737.34;5067833;28;20025;-30
2022/09/13 09:43:20;;;;;;;2.85;1.80;;;;;;;26.36;34.06;99737.09;5067944;28;20077;-29
2022/09/13 09:45:47;;;;;;;4.65;2.33;;;;;;;26.11;34.57;99747.06;5049474;28;20044;-29
2022/09/13 09:48:18;;;;;;;5.13;2.10;;;;;;;25.60;36.31;99743.44;5067600;28;20028;-28
2022/09/13 09:50:48;;;;;;;3.25;1.90;;;;;;;25.06;34.61;99754.78;5049473;28;20068;-29
2022/09/13 09:53:33;;;;;;;3.67;2.20;;;;;;;25.36;34.11;99744.81;5049591;28;20028;-28
2022/09/13 09:56:11;;;;;;;3.22;2.00;;;;;;;25.88;34.59;99738.31;5067491;28;20021;-30
2022/09/13 09:58:42;;;;;;;3.17;1.85;;;;;;;26.34;31.62;99733.09;5048573;28;20127;-28
2022/09/13 10:01:32;;;;;;;2.42;1.65;;;;;;;26.76;32.02;99736.63;5048343;28;20066;-32
2022/09/13 10:04:03;;;;;;;5.55;2.00;;;;;;;26.59;32.96;99739.53;5066535;28;20040;-30
2022/09/13 10:06:30;;;;;;;4.25;2.05;;;;;;;26.65;33.06;99722.56;5066364;28;20035;-29
2022/09/13 10:09:12;;;;;;;4.30;1.87;;;;;;;26.57;31.63;99733.56;5048644;28;20033;-30
2022/09/13 10:11:49;;;;;;;2.58;1.75;;;;;;;26.89;32.04;99731.22;5067114;28;20068;-29
2022/09/13 10:14:26;;;;;;;3.05;1.70;;;;;;;27.28;32.72;99723.59;5066625;28;20032;-31
2022/09/13 10:17:04;;;;;;;2.65;1.73;;;;;;;27.07;31.46;99732.63;5066423;28;20090;-29
2022/09/13 10:19:31;;;;;;;4.50;2.17;;;;;;;26.53;33.04;99711.56;5048437;28;20029;-28
2022/09/13 10:22:11;;;;;;;2.55;1.70;;;;;;;26.15;32.41;99703.47;5048376;28;20045;-30
2022/09/13 10:24:37;;;;;;;3.33;1.77;;;;;;;26.43;33.04;99715.47;5048039;28;20515;-30
2022/09/13 10:27:04;;;;;;;5.35;1.77;;;;;;;26.26;32.97;99704.69;5048206;28;20036;-29
2022/09/13 10:29:31;;;;;;;5.90;1.95;;;;;;;26.11;32.15;99700.59;5066459;28;20048;-28
2022/09/13 10:32:02;;;;;;;4.70;2.08;;;;;;;26.44;33.04;99699.91;5048382;28;20047;-38
2022/09/13 10:34:34;;;;;;;5.72;2.30;;;;;;;26.78;33.30;99698.78;5047926;28;20135;-32
2022/09/13 10:37:13;;;;;;;4.25;1.98;;;;;;;26.79;32.51;99694.94;5066497;28;20401;-31
2022/09/13 10:39:56;;;;;;;4.53;1.90;;;;;;;26.11;32.68;99694.34;5048014;28;20060;-30
2022/09/13 10:42:25;;;;;;;5.25;2.15;;;;;;;25.42;34.17;99685.38;5066353;28;20020;-31
2022/09/13 10:45:05;;;;;;;3.47;2.00;;;;;;;24.54;34.50;99690.22;5066402;28;20063;-29
2022/09/13 10:47:36;;;;;;;4.95;2.15;;;;;;;24.19;36.56;99692.91;5066455;28;20029;-28
2022/09/13 10:50:24;;;;;;;2.33;2.00;;;;;;;23.98;35.72;99681.00;5047858;28;20068;-29
2022/09/13 10:52:54;;;;;;;6.30;2.08;;;;;;;23.91;35.88;99680.69;5066444;28;20094;-29
2022/09/13 10:55:23;;;;;;;3.03;2.00;;;;;;;24.23;36.56;99687.59;5047817;28;20492;-31
2022/09/13 10:58:02;;;;;;;2.95;2.17;;;;;;;24.62;33.56;99675.78;5066345;28;20074;-30
2022/09/13 11:00:31;;;;;;;2.50;1.75;;;;;;;25.60;34.06;99662.34;5048694;28;20041;-33
2022/09/13 11:03:22;;;;;;;3.20;1.88;;;;;;;26.00;33.70;99670.13;5051719;28;20109;-33
2022/09/13 11:06:26;;;;;;;3.95;1.90;;;;;;;26.46;32.07;99682.03;5069789;28;20174;-28
2022/09/13 11:09:14;;;;;;;3.35;2.00;;;;;;;26.79;30.04;99684.00;5006769;28;20037;-32
2022/09/13 11:11:45;;;;;;;4.00;1.95;;;;;;;26.92;30.85;99684.03;5066896;28;20604;-28
2022/09/13 11:14:16;;;;;;;3.67;1.90;;;;;;;26.76;31.56;99679.19;5051554;28;20071;-28
2022/09/13 11:16:51;;;;;;;2.10;1.65;;;;;;;26.63;30.31;99685.75;5069226;28;20051;-30
2022/09/13 11:19:25;;;;;;;2.13;1.58;;;;;;;26.71;29.52;99670.41;5051133;28;20051;-28
2022/09/13 11:22:21;;;;;;;2.88;1.60;;;;;;;27.10;29.08;99666.28;5051458;28;20043;-33
2022/09/13 11:25:17;;;;;;;1.85;1.50;;;;;;;27.32;30.87;99658.78;5069316;28;20032;-30
2022/09/13 11:27:49;;;;;;;4.13;1.80;;;;;;;27.45;30.78;99654.94;5069068;28;20032;-31
2022/09/13 11:30:25;;;;;;;4.07;2.00;;;;;;;26.82;29.89;99649.69;5069329;28;20111;-35
2022/09/13 11:32:56;;;;;;;1.92;1.63;;;;;;;26.72;30.05;99656.38;5051107;28;20089;-28
2022/09/13 11:35:28;;;;;;;3.10;1.67;;;;;;;26.37;29.84;99656.66;5069006;28;20601;-31
2022/09/13 11:37:56;;;;;;;1.83;1.60;;;;;;;25.90;29.96;99648.66;5069141;28;20056;-33
2022/09/13 11:40:31;;;;;;;2.22;1.52;;;;;;;26.03;30.68;99646.81;5068591;28;20036;-29
2022/09/13 11:43:07;;;;;;;2.05;1.40;;;;;;;26.39;31.76;99648.94;5051075;28;20036;-29
2022/09/13 11:46:09;;;;;;;2.53;1.58;;;;;;;26.10;29.54;99647.09;5050840;28;20453;-30
2022/09/13 11:48:46;;;;;;;2.33;1.70;;;;;;;26.54;31.14;99636.59;5044914;28;20067;-28
2022/09/13 11:51:41;;;;;;;2.58;1.77;;;;;;;27.19;29.13;99652.50;5068890;28;20036;-29
2022/09/13 11:54:13;;;;;;;2.65;1.60;;;;;;;27.87;30.84;99637.47;5055315;28;20436;-32
2022/09/13 11:56:47;;;;;;;2.63;1.73;;;;;;;27.22;28.86;99641.66;5068591;28;20628;-30
2022/09/13 11:59:28;;;;;;;2.90;1.70;;;;;;;27.41;29.20;99637.59;5050446;28;20542;-30